createdAt,value
2022-10-02T00:00:01.520Z,11.1
2022-10-02T00:01:03.937Z,11
2022-10-02T00:02:05.837Z,11
2022-10-02T00:03:07.816Z,11
2022-10-02T00:04:09.951Z,10.9
2022-10-02T00:05:12.058Z,10.9
2022-10-02T00:08:03.438Z,11.2
2022-10-02T00:09:05.897Z,11.3
2022-10-02T00:10:08.236Z,11.2
2022-10-02T00:11:10.998Z,11.2
2022-10-02T00:12:12.730Z,11
2022-10-02T00:13:15.201Z,11
2022-10-02T00:14:17.833Z,11
2022-10-02T00:15:20.429Z,10.9
2022-10-02T00:16:21.772Z,11
2022-10-02T00:17:24.067Z,11
2022-10-02T00:18:26.096Z,11.1
2022-10-02T00:19:27.977Z,11.1
2022-10-02T00:20:31.077Z,11.2
2022-10-02T00:21:32.778Z,11
2022-10-02T00:22:34.836Z,11.1
2022-10-02T00:23:36.816Z,11.1
2022-10-02T00:24:39.336Z,11.1
2022-10-02T00:25:42.377Z,11
2022-10-02T00:26:45.344Z,10.9
2022-10-02T00:27:47.874Z,11
2022-10-02T00:28:50.218Z,11
2022-10-02T00:29:53.359Z,10.9
2022-10-02T00:30:55.959Z,11
2022-10-02T00:31:58.212Z,10.9
2022-10-02T00:33:00.877Z,10.9
2022-10-02T00:34:03.024Z,10.9
2022-10-02T00:35:05.897Z,10.9
2022-10-02T00:36:07.956Z,10.7
2022-10-02T00:37:09.991Z,10.6
2022-10-02T00:38:12.168Z,10.7
2022-10-02T00:39:13.885Z,10.7
2022-10-02T00:40:16.738Z,10.6
2022-10-02T00:41:18.896Z,10.7
2022-10-02T00:42:21.016Z,10.8
2022-10-02T00:43:23.105Z,10.9
2022-10-02T00:44:26.218Z,11
2022-10-02T00:45:28.122Z,11
2022-10-02T00:46:31.087Z,11.1
2022-10-02T00:47:34.139Z,11.1
2022-10-02T00:48:36.936Z,11.1
2022-10-02T00:49:38.997Z,11.1
2022-10-02T00:50:41.077Z,11.2
2022-10-02T00:51:42.877Z,11.2
2022-10-02T00:52:45.176Z,11.2
2022-10-02T00:53:46.876Z,11.1
2022-10-02T00:54:49.236Z,11.1
2022-10-02T00:55:52.037Z,11
2022-10-02T00:56:55.773Z,11.1
2022-10-02T00:57:57.776Z,11.1
2022-10-02T00:59:00.186Z,11.2
2022-10-02T01:00:02.879Z,11.2
2022-10-02T01:04:05.832Z,11.3
2022-10-02T01:05:07.660Z,11.3
2022-10-02T01:06:08.747Z,11.3
2022-10-02T01:07:10.985Z,11.3
2022-10-02T01:08:12.996Z,11.3
2022-10-02T01:09:14.821Z,11.3
2022-10-02T01:10:16.977Z,11.3
2022-10-02T01:11:18.949Z,11.3
2022-10-02T01:12:21.037Z,11.3
2022-10-02T01:13:23.018Z,11.3
2022-10-02T01:14:26.037Z,11.4
2022-10-02T01:15:27.877Z,11.4
2022-10-02T01:16:30.161Z,11.1
2022-10-02T01:17:31.956Z,11.1
2022-10-02T01:18:34.038Z,11.2
2022-10-02T01:19:36.141Z,11.2
2022-10-02T01:20:38.140Z,11.2
2022-10-02T01:21:40.776Z,11.3
2022-10-02T01:22:42.958Z,11.1
2022-10-02T01:23:44.919Z,11
2022-10-02T01:24:47.016Z,11
2022-10-02T01:25:50.017Z,11.1
2022-10-02T01:26:51.797Z,11
2022-10-02T01:27:53.841Z,11
2022-10-02T01:28:56.056Z,11.1
2022-10-02T01:29:58.837Z,11
2022-10-02T01:31:01.117Z,11
2022-10-02T01:32:02.916Z,11
2022-10-02T01:33:05.737Z,11
2022-10-02T01:34:07.807Z,10.9
2022-10-02T01:35:09.841Z,10.9
2022-10-02T01:36:11.976Z,10.9
2022-10-02T01:37:13.897Z,10.8
2022-10-02T01:38:15.873Z,10.8
2022-10-02T01:39:17.757Z,10.8
2022-10-02T01:40:19.976Z,10.8
2022-10-02T01:41:22.297Z,10.9
2022-10-02T01:42:24.064Z,10.9
2022-10-02T01:43:25.884Z,10.9
2022-10-02T01:44:27.737Z,11
2022-10-02T01:45:30.185Z,11
2022-10-02T01:46:32.948Z,11
2022-10-02T01:47:34.776Z,11
2022-10-02T01:48:36.799Z,11.1
2022-10-02T01:49:38.959Z,11
2022-10-02T01:50:40.800Z,11
2022-10-02T01:51:43.205Z,11
2022-10-02T01:52:45.937Z,11
2022-10-02T01:53:48.096Z,11.1
2022-10-02T01:54:50.817Z,11
2022-10-02T01:55:52.917Z,10.9
2022-10-02T01:56:54.835Z,11
2022-10-02T01:57:56.916Z,11
2022-10-02T01:58:59.364Z,11
2022-10-02T02:00:02.116Z,11
2022-10-02T02:01:04.005Z,11
2022-10-02T02:02:05.904Z,11
2022-10-02T02:03:07.976Z,11.1
2022-10-02T02:04:09.940Z,11
2022-10-02T02:05:12.181Z,11
2022-10-02T02:06:14.060Z,11
2022-10-02T02:07:15.897Z,11
2022-10-02T02:08:19.237Z,10.9
2022-10-02T02:09:20.857Z,10.8
2022-10-02T02:10:23.365Z,10.8
2022-10-02T02:11:25.897Z,10.7
2022-10-02T02:12:27.976Z,10.7
2022-10-02T02:13:31.025Z,10.7
2022-10-02T02:14:33.958Z,10.8
2022-10-02T02:15:35.976Z,10.8
2022-10-02T02:16:38.189Z,10.8
2022-10-02T02:17:39.938Z,10.9
2022-10-02T02:18:42.136Z,10.9
2022-10-02T02:19:44.165Z,11.1
2022-10-02T02:20:46.937Z,11.1
2022-10-02T02:21:48.731Z,11.2
2022-10-02T02:22:50.845Z,11.2
2022-10-02T02:23:52.881Z,11.3
2022-10-02T02:24:55.146Z,11.3
2022-10-02T02:25:56.802Z,11.3
2022-10-02T02:26:58.896Z,11.3
2022-10-02T02:28:00.898Z,11.4
2022-10-02T02:29:03.037Z,11.3
2022-10-02T02:30:05.442Z,11.3
2022-10-02T02:31:08.185Z,11.3
2022-10-02T02:32:10.017Z,11.3
2022-10-02T02:33:11.858Z,11.2
2022-10-02T02:34:16.356Z,11.2
2022-10-02T02:35:17.880Z,11.2
2022-10-02T02:36:19.976Z,11.3
2022-10-02T02:37:23.280Z,11.2
2022-10-02T02:38:24.944Z,11.3
2022-10-02T02:39:26.914Z,11.3
2022-10-02T02:40:28.859Z,11.1
2022-10-02T02:41:31.136Z,11.1
2022-10-02T02:42:32.797Z,11.1
2022-10-02T02:43:34.943Z,11.1
2022-10-02T02:44:36.976Z,11.2
2022-10-02T02:45:39.023Z,11.3
2022-10-02T02:46:40.937Z,11.2
2022-10-02T02:47:42.877Z,11.2
2022-10-02T02:48:44.965Z,11.1
2022-10-02T02:49:47.097Z,11
2022-10-02T02:50:49.019Z,11
2022-10-02T02:51:50.738Z,11
2022-10-02T02:52:52.899Z,11.1
2022-10-02T02:53:55.478Z,11.2
2022-10-02T02:54:56.930Z,11.1
2022-10-02T02:55:58.857Z,11.1
2022-10-02T02:57:01.136Z,11
2022-10-02T02:58:03.856Z,11
2022-10-02T02:59:05.899Z,10.9
2022-10-02T03:00:08.024Z,10.9
2022-10-02T03:01:10.223Z,10.8
2022-10-02T03:02:13.150Z,10.8
2022-10-02T03:03:15.877Z,10.8
2022-10-02T03:04:18.017Z,10.8
2022-10-02T03:05:20.036Z,10.9
2022-10-02T03:06:22.017Z,10.9
2022-10-02T03:07:26.810Z,11
2022-10-02T03:08:26.020Z,11
2022-10-02T03:09:28.217Z,11
2022-10-02T03:10:30.936Z,10.8
2022-10-02T03:11:33.238Z,10.9
2022-10-02T03:12:34.977Z,10.9
2022-10-02T03:13:37.017Z,11
2022-10-02T03:14:39.025Z,11
2022-10-02T03:15:41.162Z,10.9
2022-10-02T03:16:42.910Z,10.9
2022-10-02T03:17:44.757Z,10.8
2022-10-02T03:18:46.862Z,10.7
2022-10-02T03:19:49.017Z,10.6
2022-10-02T03:20:50.910Z,10.6
2022-10-02T03:21:53.076Z,10.6
2022-10-02T03:22:54.978Z,10.7
2022-10-02T03:23:57.563Z,10.7
2022-10-02T03:25:00.043Z,10.8
2022-10-02T03:26:02.117Z,10.7
2022-10-02T03:27:06.796Z,10.7
2022-10-02T03:28:09.241Z,10.7
2022-10-02T03:29:12.055Z,10.7
2022-10-02T03:30:15.090Z,10.6
2022-10-02T03:31:17.158Z,10.6
2022-10-02T03:32:18.958Z,10.6
2022-10-02T03:33:20.858Z,10.5
2022-10-02T03:34:23.198Z,10.6
2022-10-02T03:35:24.844Z,10.6
2022-10-02T03:36:26.956Z,10.6
2022-10-02T03:37:28.737Z,10.6
2022-10-02T03:38:29.998Z,10.6
2022-10-02T03:39:31.939Z,10.6
2022-10-02T03:40:33.936Z,10.7
2022-10-02T03:41:35.898Z,10.7
2022-10-02T03:42:37.857Z,10.7
2022-10-02T03:43:39.925Z,10.7
2022-10-02T03:44:41.798Z,10.6
2022-10-02T03:45:51.240Z,10.6
2022-10-02T03:46:45.791Z,10.7
2022-10-02T03:47:47.938Z,10.6
2022-10-02T03:48:50.017Z,10.7
2022-10-02T03:49:51.857Z,10.7
2022-10-02T03:50:54.197Z,10.8
2022-10-02T03:51:55.996Z,10.7
2022-10-02T03:52:57.937Z,10.6
2022-10-02T03:53:59.928Z,10.6
2022-10-02T03:55:01.926Z,10.7
2022-10-02T03:56:03.938Z,10.6
2022-10-02T03:57:06.118Z,10.6
2022-10-02T03:58:08.177Z,10.7
2022-10-02T03:59:11.017Z,10.7
2022-10-02T04:00:13.557Z,10.8
2022-10-02T04:01:16.132Z,10.8
2022-10-02T04:02:18.016Z,10.9
2022-10-02T04:03:19.845Z,10.8
2022-10-02T04:04:22.138Z,10.8
2022-10-02T04:05:24.017Z,10.9
2022-10-02T04:06:25.918Z,10.9
2022-10-02T04:07:27.998Z,10.9
2022-10-02T04:08:30.177Z,10.8
2022-10-02T04:09:32.098Z,10.8
2022-10-02T04:10:35.041Z,10.8
2022-10-02T04:11:37.042Z,10.7
2022-10-02T04:12:39.056Z,10.7
2022-10-02T04:13:40.876Z,10.6
2022-10-02T04:14:43.137Z,10.6
2022-10-02T04:15:44.872Z,10.6
2022-10-02T04:16:47.237Z,10.6
2022-10-02T04:17:48.977Z,10.6
2022-10-02T04:18:51.157Z,10.6
2022-10-02T04:19:52.957Z,10.5
2022-10-02T04:20:54.949Z,10.5
2022-10-02T04:21:56.878Z,10.5
2022-10-02T04:22:58.877Z,10.4
2022-10-02T04:24:01.237Z,10.4
2022-10-02T04:25:03.096Z,10.5
2022-10-02T04:26:05.241Z,10.5
2022-10-02T04:27:07.025Z,10.5
2022-10-02T04:28:09.190Z,10.5
2022-10-02T04:29:12.397Z,10.5
2022-10-02T04:30:14.861Z,10.4
2022-10-02T04:31:16.944Z,10.4
2022-10-02T04:32:18.937Z,10.4
2022-10-02T04:33:20.898Z,10.4
2022-10-02T04:34:22.937Z,10.5
2022-10-02T04:35:24.917Z,10.6
2022-10-02T04:36:26.977Z,10.7
2022-10-02T04:37:28.955Z,10.7
2022-10-02T04:38:31.036Z,10.7
2022-10-02T04:39:33.157Z,10.7
2022-10-02T04:40:34.919Z,10.8
2022-10-02T04:41:37.020Z,10.7
2022-10-02T04:42:38.837Z,10.6
2022-10-02T04:43:40.997Z,10.4
2022-10-02T04:44:43.057Z,10.3
2022-10-02T04:45:44.873Z,10.3
2022-10-02T04:46:46.957Z,10.3
2022-10-02T04:47:48.937Z,10.3
2022-10-02T04:48:51.117Z,10.3
2022-10-02T04:49:52.917Z,10.3
2022-10-02T04:50:54.983Z,10.3
2022-10-02T04:51:57.046Z,10.3
2022-10-02T04:52:59.299Z,10.4
2022-10-02T04:54:00.896Z,10.4
2022-10-02T04:55:03.078Z,10.5
2022-10-02T04:56:05.036Z,10.5
2022-10-02T04:57:06.939Z,10.5
2022-10-02T04:58:08.937Z,10.5
2022-10-02T04:59:11.117Z,10.4
2022-10-02T05:00:13.877Z,10.4
2022-10-02T05:01:17.227Z,10.5
2022-10-02T05:02:20.199Z,10.4
2022-10-02T05:03:22.420Z,10.4
2022-10-02T05:04:25.017Z,10.4
2022-10-02T05:05:27.097Z,10.4
2022-10-02T05:06:29.116Z,10.3
2022-10-02T05:07:31.980Z,10.4
2022-10-02T05:08:34.317Z,10.4
2022-10-02T05:09:36.038Z,10.4
2022-10-02T05:10:41.137Z,10.4
2022-10-02T05:11:44.067Z,10.4
2022-10-02T05:12:46.064Z,10.4
2022-10-02T05:13:48.279Z,10.4
2022-10-02T05:14:51.037Z,10.4
2022-10-02T05:15:53.052Z,10.5
2022-10-02T05:16:54.885Z,10.5
2022-10-02T05:17:57.316Z,10.4
2022-10-02T05:18:59.917Z,10.4
2022-10-02T05:20:01.869Z,10.4
2022-10-02T05:21:04.245Z,10.4
2022-10-02T05:22:06.059Z,10.4
2022-10-02T05:23:08.337Z,10.3
2022-10-02T05:24:11.037Z,10.4
2022-10-02T05:25:13.117Z,10.3
2022-10-02T05:26:15.039Z,10.3
2022-10-02T05:27:17.163Z,10.4
2022-10-02T05:28:19.495Z,10.4
2022-10-02T05:29:22.294Z,10.5
2022-10-02T05:30:25.137Z,10.6
2022-10-02T05:31:28.225Z,10.6
2022-10-02T05:32:30.236Z,10.7
2022-10-02T05:33:33.225Z,10.7
2022-10-02T05:34:36.025Z,10.7
2022-10-02T05:35:38.937Z,10.7
2022-10-02T05:36:42.320Z,10.7
2022-10-02T05:37:45.091Z,10.6
2022-10-02T05:38:47.517Z,10.6
2022-10-02T05:39:50.317Z,10.6
2022-10-02T05:40:52.036Z,10.6
2022-10-02T05:41:54.007Z,10.6
2022-10-02T05:42:55.926Z,10.6
2022-10-02T05:43:58.121Z,10.7
2022-10-02T05:45:00.059Z,10.6
2022-10-02T05:46:01.976Z,10.6
2022-10-02T05:47:04.117Z,10.6
2022-10-02T05:48:06.054Z,10.6
2022-10-02T05:49:08.200Z,10.7
2022-10-02T05:50:11.056Z,10.8
2022-10-02T05:51:13.136Z,10.9
2022-10-02T05:52:15.203Z,10.8
2022-10-02T05:53:17.197Z,10.7
2022-10-02T05:54:19.476Z,10.7
2022-10-02T05:55:21.196Z,10.7
2022-10-02T05:56:22.997Z,10.6
2022-10-02T05:57:24.896Z,10.5
2022-10-02T05:58:28.117Z,10.5
2022-10-02T05:59:30.322Z,10.5
2022-10-02T06:00:32.656Z,10.5
2022-10-02T06:01:35.286Z,10.5
2022-10-02T06:02:39.414Z,10.5
2022-10-02T06:03:41.338Z,10.5
2022-10-02T06:04:43.276Z,10.6
2022-10-02T06:05:46.476Z,10.7
2022-10-02T06:06:49.121Z,10.8
2022-10-02T06:07:52.071Z,10.8
2022-10-02T06:08:55.337Z,10.8
2022-10-02T06:09:57.104Z,10.7
2022-10-02T06:10:59.357Z,10.7
2022-10-02T06:12:02.072Z,10.8
2022-10-02T06:13:04.936Z,10.8
2022-10-02T06:14:07.204Z,10.8
2022-10-02T06:15:10.203Z,10.8
2022-10-02T06:16:12.101Z,10.8
2022-10-02T06:17:15.217Z,10.9
2022-10-02T06:18:17.109Z,11
2022-10-02T06:19:19.365Z,11.1
2022-10-02T06:20:21.016Z,11
2022-10-02T06:21:23.276Z,10.9
2022-10-02T06:22:25.100Z,10.9
2022-10-02T06:23:28.176Z,10.9
2022-10-02T06:24:30.272Z,10.9
2022-10-02T06:25:32.180Z,10.8
2022-10-02T06:26:35.452Z,10.8
2022-10-02T06:27:37.270Z,10.7
2022-10-02T06:28:39.417Z,10.8
2022-10-02T06:29:42.322Z,10.7
2022-10-02T06:30:44.380Z,10.7
2022-10-02T06:31:46.010Z,10.8
2022-10-02T06:32:48.216Z,10.9
2022-10-02T06:33:51.357Z,11
2022-10-02T06:34:53.956Z,11.1
2022-10-02T06:35:57.359Z,11.2
2022-10-02T06:37:00.476Z,11.2
2022-10-02T06:38:02.053Z,11.3
2022-10-02T06:39:04.257Z,11.3
2022-10-02T06:40:07.256Z,11.2
2022-10-02T06:41:10.248Z,11.2
2022-10-02T06:42:11.956Z,11.1
2022-10-02T06:43:15.337Z,11.1
2022-10-02T06:44:16.927Z,11.1
2022-10-02T06:45:19.036Z,11.1
2022-10-02T06:46:21.998Z,11.1
2022-10-02T06:47:23.964Z,11.1
2022-10-02T06:48:26.076Z,11.1
2022-10-02T06:49:28.137Z,11.2
2022-10-02T06:50:30.584Z,11.3
2022-10-02T06:51:31.997Z,11.3
2022-10-02T06:52:37.879Z,11.3
2022-10-02T06:53:36.005Z,11.3
2022-10-02T06:54:38.433Z,11.3
2022-10-02T06:55:40.977Z,11.4
2022-10-02T06:56:43.246Z,11.4
2022-10-02T06:57:44.902Z,11.5
2022-10-02T06:58:47.477Z,11.6
2022-10-02T06:59:50.128Z,11.7
2022-10-02T07:00:53.877Z,11.7
2022-10-02T07:01:57.382Z,11.8
2022-10-02T07:02:58.118Z,12
2022-10-02T07:03:59.966Z,12
2022-10-02T07:05:01.908Z,12.1
2022-10-02T07:06:04.212Z,12
2022-10-02T07:07:07.030Z,11.7
2022-10-02T07:08:08.997Z,11.6
2022-10-02T07:09:11.057Z,11.4
2022-10-02T07:10:13.265Z,11.5
2022-10-02T07:11:16.026Z,11.6
2022-10-02T07:12:18.315Z,11.7
2022-10-02T07:13:20.198Z,11.9
2022-10-02T07:14:22.237Z,12.1
2022-10-02T07:15:25.208Z,12.2
2022-10-02T07:16:27.445Z,12.3
2022-10-02T07:17:29.299Z,12.4
2022-10-02T07:18:31.077Z,12.5
2022-10-02T07:19:34.156Z,12.3
2022-10-02T07:20:37.016Z,12.4
2022-10-02T07:21:40.254Z,12.4
2022-10-02T07:22:47.063Z,12.4
2022-10-02T07:23:52.163Z,12.4
2022-10-02T07:24:54.305Z,12.4
2022-10-02T07:25:56.356Z,12.4
2022-10-02T07:26:59.397Z,12.3
2022-10-02T07:28:02.646Z,12.3
2022-10-02T07:29:05.118Z,12.2
2022-10-02T07:30:07.317Z,12.1
2022-10-02T07:31:10.298Z,11.9
2022-10-02T07:32:13.419Z,11.8
2022-10-02T07:33:16.189Z,11.7
2022-10-02T07:34:19.144Z,11.6
2022-10-02T07:35:21.214Z,11.6
2022-10-02T07:36:22.949Z,11.6
2022-10-02T07:37:25.086Z,11.6
2022-10-02T07:38:28.158Z,11.8
2022-10-02T07:39:30.653Z,12
2022-10-02T07:40:33.101Z,12.2
2022-10-02T07:41:34.845Z,12.4
2022-10-02T07:42:37.076Z,12.6
2022-10-02T07:43:38.905Z,12.6
2022-10-02T07:44:41.176Z,12.5
2022-10-02T07:45:43.172Z,12.3
2022-10-02T07:46:45.348Z,12.3
2022-10-02T07:47:47.881Z,12.2
2022-10-02T07:48:50.180Z,12.2
2022-10-02T07:49:52.254Z,12.1
2022-10-02T07:50:54.166Z,12.1
2022-10-02T07:51:56.412Z,12.2
2022-10-02T07:52:59.531Z,12.2
2022-10-02T07:54:01.454Z,12.2
2022-10-02T07:55:04.255Z,12.2
2022-10-02T07:59:36.319Z,12.3
2022-10-02T08:00:39.567Z,12.4
2022-10-02T08:01:43.461Z,12.5
2022-10-02T08:02:46.273Z,12.5
2022-10-02T08:03:48.508Z,12.4
2022-10-02T08:04:51.201Z,12.4
2022-10-02T08:05:53.291Z,12.3
2022-10-02T08:06:56.137Z,12.4
2022-10-02T08:07:58.297Z,12.4
2022-10-02T08:09:01.599Z,12.4
2022-10-02T08:10:04.028Z,12.5
2022-10-02T08:11:07.459Z,12.6
2022-10-02T08:12:10.558Z,12.6
2022-10-02T08:13:13.072Z,12.6
2022-10-02T08:14:16.257Z,12.6
2022-10-02T08:15:18.724Z,12.6
2022-10-02T08:16:21.384Z,12.5
2022-10-02T08:17:24.279Z,12.3
2022-10-02T08:18:35.203Z,12.3
2022-10-02T08:19:29.305Z,12.2
2022-10-02T08:20:31.423Z,12
2022-10-02T08:21:34.217Z,12.2
2022-10-02T08:22:37.359Z,12.3
2022-10-02T08:23:40.798Z,12.4
2022-10-02T08:24:43.231Z,12.4
2022-10-02T08:25:45.279Z,12.5
2022-10-02T08:26:47.013Z,12.5
2022-10-02T08:27:50.402Z,12.6
2022-10-02T08:28:52.332Z,12.5
2022-10-02T08:29:54.508Z,12.4
2022-10-02T08:30:57.231Z,12.5
2022-10-02T08:32:00.385Z,12.5
2022-10-02T08:33:03.272Z,12.6
2022-10-02T08:34:06.244Z,12.8
2022-10-02T08:35:08.471Z,12.7
2022-10-02T08:36:11.504Z,12.7
2022-10-02T08:37:14.424Z,12.7
2022-10-02T08:38:17.299Z,12.7
2022-10-02T08:39:20.540Z,12.7
2022-10-02T08:40:23.375Z,12.7
2022-10-02T08:41:26.271Z,12.8
2022-10-02T08:42:29.495Z,13
2022-10-02T08:43:31.112Z,13.2
2022-10-02T08:44:36.255Z,13.2
2022-10-02T08:45:37.356Z,13.1
2022-10-02T08:46:39.543Z,13
2022-10-02T08:47:41.633Z,13
2022-10-02T08:48:44.113Z,13
2022-10-02T08:49:46.279Z,12.9
2022-10-02T08:50:49.426Z,12.9
2022-10-02T08:51:52.137Z,12.9
2022-10-02T08:52:55.331Z,13
2022-10-02T08:53:58.453Z,13
2022-10-02T08:55:01.257Z,13.1
2022-10-02T08:56:03.052Z,13.2
2022-10-02T08:57:05.271Z,13.3
2022-10-02T08:58:08.812Z,13.5
2022-10-02T08:59:11.213Z,13.7
2022-10-02T09:00:13.207Z,13.6
2022-10-02T09:01:16.708Z,13.6
2022-10-02T09:02:19.378Z,13.6
2022-10-02T09:03:22.373Z,13.6
2022-10-02T09:04:24.439Z,13.4
2022-10-02T09:05:27.611Z,13.4
2022-10-02T09:06:30.432Z,13.4
2022-10-02T09:07:33.300Z,13.5
2022-10-02T09:08:36.087Z,13.7
2022-10-02T09:09:38.373Z,13.9
2022-10-02T09:10:41.193Z,14.1
2022-10-02T09:11:44.633Z,14.2
2022-10-02T09:12:47.462Z,14.2
2022-10-02T09:13:50.388Z,14.3
2022-10-02T09:14:55.688Z,14.4
2022-10-02T09:15:56.243Z,14.6
2022-10-02T09:16:58.171Z,14.7
2022-10-02T09:18:00.512Z,14.4
2022-10-02T09:19:03.276Z,14.2
2022-10-02T09:20:06.452Z,14.2
2022-10-02T09:21:11.643Z,14.3
2022-10-02T09:22:12.051Z,14.4
2022-10-02T09:23:14.233Z,14.6
2022-10-02T09:24:16.561Z,14.8
2022-10-02T09:25:19.432Z,14.9
2022-10-02T09:26:22.352Z,14.9
2022-10-02T09:27:25.251Z,15
2022-10-02T09:28:27.502Z,15.1
2022-10-02T09:29:31.080Z,15.5
2022-10-02T09:30:34.311Z,15.4
2022-10-02T09:31:37.474Z,15.3
2022-10-02T09:32:40.467Z,15.1
2022-10-02T09:33:43.331Z,15
2022-10-02T09:34:46.652Z,15.1
2022-10-02T09:35:49.143Z,15
2022-10-02T09:36:51.133Z,14.8
2022-10-02T09:37:53.012Z,14.6
2022-10-02T09:38:55.325Z,14.3
2022-10-02T09:39:57.042Z,14.2
2022-10-02T09:40:59.126Z,14
2022-10-02T09:42:01.153Z,14.1
2022-10-02T09:43:04.411Z,14.2
2022-10-02T09:44:07.243Z,14.4
2022-10-02T09:45:10.172Z,14.4
2022-10-02T09:46:12.312Z,14.7
2022-10-02T09:47:15.271Z,14.8
2022-10-02T09:48:17.173Z,15
2022-10-02T09:49:19.092Z,15.3
2022-10-02T09:50:21.633Z,15.3
2022-10-02T09:51:24.214Z,15
2022-10-02T09:52:26.322Z,14.6
2022-10-02T09:53:28.433Z,14.5
2022-10-02T09:54:31.258Z,14.6
2022-10-02T09:55:33.381Z,14.6
2022-10-02T09:56:36.471Z,14.6
2022-10-02T09:57:39.459Z,14.7
2022-10-02T09:58:42.272Z,14.6
2022-10-02T09:59:45.392Z,14.7
2022-10-02T10:00:48.313Z,14.4
2022-10-02T10:01:50.318Z,14.2
2022-10-02T10:02:52.400Z,14.1
2022-10-02T10:03:55.735Z,14.1
2022-10-02T10:05:05.862Z,14.2
2022-10-02T10:06:00.552Z,14.2
2022-10-02T10:07:03.492Z,14.2
2022-10-02T10:08:06.352Z,14.4
2022-10-02T10:09:08.392Z,14.6
2022-10-02T10:10:11.494Z,14.8
2022-10-02T10:11:14.753Z,15
2022-10-02T10:12:17.251Z,15.1
2022-10-02T10:13:19.233Z,15.2
2022-10-02T10:14:21.239Z,15.4
2022-10-02T10:15:24.275Z,15.4
2022-10-02T10:16:27.402Z,15.3
2022-10-02T10:17:29.337Z,15.3
2022-10-02T10:18:31.712Z,15.4
2022-10-02T10:19:35.332Z,15.5
2022-10-02T10:20:38.428Z,15.5
2022-10-02T10:21:41.393Z,15.2
2022-10-02T10:22:43.414Z,15
2022-10-02T10:23:46.538Z,14.9
2022-10-02T10:24:49.352Z,14.9
2022-10-02T10:25:52.553Z,14.8
2022-10-02T10:26:55.191Z,14.9
2022-10-02T10:27:58.248Z,14.9
2022-10-02T10:29:00.252Z,14.9
2022-10-02T10:30:02.591Z,14.8
2022-10-02T10:31:05.651Z,14.9
2022-10-02T10:32:08.432Z,15.1
2022-10-02T10:33:11.209Z,15.2
2022-10-02T10:34:14.392Z,15.2
2022-10-02T10:35:17.892Z,15.1
2022-10-02T10:36:20.912Z,15.1
2022-10-02T10:37:23.439Z,15.1
2022-10-02T10:38:26.772Z,15.3
2022-10-02T10:39:29.572Z,15.5
2022-10-02T10:40:32.379Z,15.6
2022-10-02T10:41:34.945Z,15.3
2022-10-02T10:42:50.112Z,15.3
2022-10-02T10:43:40.630Z,15.4
2022-10-02T10:44:43.692Z,15.7
2022-10-02T10:45:46.533Z,15.9
2022-10-02T10:46:48.199Z,16.1
2022-10-02T10:47:51.270Z,16.3
2022-10-02T10:48:54.039Z,16.4
2022-10-02T10:49:56.254Z,16.4
2022-10-02T10:50:58.600Z,16.2
2022-10-02T10:52:01.448Z,15.9
2022-10-02T10:53:03.508Z,15.6
2022-10-02T10:54:06.342Z,15.5
2022-10-02T10:55:09.429Z,15.5
2022-10-02T10:56:12.470Z,15.7
2022-10-02T10:57:15.264Z,15.8
2022-10-02T10:58:17.271Z,16
2022-10-02T10:59:24.482Z,16.1
2022-10-02T11:00:23.551Z,16.1
2022-10-02T11:01:26.571Z,16.2
2022-10-02T11:02:29.365Z,16.3
2022-10-02T11:03:32.602Z,16.7
2022-10-02T11:04:35.253Z,16.9
2022-10-02T11:05:37.413Z,17.1
2022-10-02T11:06:45.315Z,17.2
2022-10-02T11:07:44.230Z,17.3
2022-10-02T11:08:46.791Z,17
2022-10-02T11:09:50.176Z,16.7
2022-10-02T11:10:52.219Z,16.7
2022-10-02T11:11:53.994Z,16.5
2022-10-02T11:12:56.223Z,16.2
2022-10-02T11:13:57.934Z,16.1
2022-10-02T11:14:58.952Z,16
2022-10-02T11:16:00.022Z,16.1
2022-10-02T11:17:00.992Z,16.1
2022-10-02T11:18:02.013Z,16.1
2022-10-02T11:19:02.971Z,16.2
2022-10-02T11:20:03.991Z,16.1
2022-10-02T11:21:04.971Z,15.9
2022-10-02T11:22:06.914Z,16
2022-10-02T11:23:08.912Z,16
2022-10-02T11:24:10.971Z,16
2022-10-02T11:25:13.235Z,15.9
2022-10-02T11:26:13.076Z,15.6
2022-10-02T11:27:15.013Z,15.6
2022-10-02T11:28:16.089Z,15.7
2022-10-02T11:29:17.013Z,15.8
2022-10-02T11:30:17.972Z,15.8
2022-10-02T11:31:19.094Z,15.6
2022-10-02T11:32:20.971Z,15.4
2022-10-02T11:33:22.972Z,15.1
2022-10-02T11:34:24.941Z,15
2022-10-02T11:35:26.971Z,14.8
2022-10-02T11:36:28.972Z,14.8
2022-10-02T11:37:30.955Z,14.8
2022-10-02T11:38:33.354Z,14.8
2022-10-02T11:39:34.947Z,14.8
2022-10-02T11:40:36.962Z,14.9
2022-10-02T11:41:38.354Z,14.9
2022-10-02T11:42:38.983Z,14.9
2022-10-02T11:43:44.006Z,14.9
2022-10-02T11:44:42.015Z,14.9
2022-10-02T11:45:43.996Z,14.9
2022-10-02T11:46:46.013Z,14.9
2022-10-02T11:47:46.954Z,15
2022-10-02T11:48:48.998Z,14.8
2022-10-02T11:49:50.995Z,14.7
2022-10-02T11:50:53.026Z,14.7
2022-10-02T11:51:55.191Z,14.7
2022-10-02T11:52:56.972Z,14.6
2022-10-02T11:53:57.955Z,14.7
2022-10-02T11:54:58.940Z,14.7
2022-10-02T11:56:01.034Z,14.8
2022-10-02T11:57:03.012Z,14.7
2022-10-02T11:58:04.923Z,14.8
2022-10-02T11:59:05.960Z,14.9
2022-10-02T12:00:06.996Z,15.1
2022-10-02T12:01:09.054Z,15.3
2022-10-02T12:02:14.479Z,15.3
2022-10-02T12:03:13.004Z,15.3
2022-10-02T12:04:14.002Z,15.4
2022-10-02T12:05:15.955Z,15.3
2022-10-02T12:06:16.989Z,15.2
2022-10-02T12:07:18.943Z,15
2022-10-02T12:08:19.956Z,15
2022-10-02T12:09:21.936Z,15
2022-10-02T12:10:23.992Z,15
2022-10-02T12:11:25.948Z,14.9
2022-10-02T12:12:27.942Z,14.8
2022-10-02T12:13:28.195Z,14.7
2022-10-02T12:14:29.994Z,14.8
2022-10-02T12:15:32.091Z,14.8
2022-10-02T12:16:33.063Z,14.8
2022-10-02T12:17:34.947Z,14.8
2022-10-02T12:18:37.013Z,14.9
2022-10-02T12:19:39.012Z,15
2022-10-02T12:20:41.008Z,15
2022-10-02T12:21:42.992Z,15
2022-10-02T12:22:43.932Z,15.1
2022-10-02T12:23:45.052Z,15.1
2022-10-02T12:24:46.025Z,15
2022-10-02T12:25:47.017Z,15.1
2022-10-02T12:26:48.967Z,15.1
2022-10-02T12:27:51.024Z,15
2022-10-02T12:28:52.963Z,14.9
2022-10-02T12:29:54.968Z,14.6
2022-10-02T12:30:56.080Z,14.5
2022-10-02T12:31:58.035Z,14.4
2022-10-02T12:32:59.991Z,14.2
2022-10-02T12:34:01.013Z,14.1
2022-10-02T12:35:02.071Z,13.8
2022-10-02T12:36:04.001Z,13.5
2022-10-02T12:37:05.392Z,13.2
2022-10-02T12:38:07.008Z,13
2022-10-02T12:39:08.012Z,12.9
2022-10-02T12:40:09.069Z,12.9
2022-10-02T12:41:10.058Z,12.9
2022-10-02T12:42:11.032Z,13
2022-10-02T12:43:12.032Z,13
2022-10-02T12:44:13.119Z,12.9
2022-10-02T12:45:15.121Z,12.7
2022-10-02T12:46:17.298Z,12.6
2022-10-02T12:47:19.155Z,12.6
2022-10-02T12:48:21.379Z,12.6
2022-10-02T12:49:24.580Z,12.5
2022-10-02T12:50:26.412Z,12.5
2022-10-02T12:51:29.411Z,12.6
2022-10-02T12:52:32.117Z,12.7
2022-10-02T12:53:34.464Z,12.7
2022-10-02T12:54:41.039Z,12.6
2022-10-02T12:55:44.232Z,12.5
2022-10-02T12:56:47.250Z,12.4
2022-10-02T12:57:50.514Z,12.3
2022-10-02T12:58:53.834Z,12.1
2022-10-02T12:59:57.958Z,12.1
2022-10-02T13:01:00.529Z,12
2022-10-02T13:02:02.817Z,11.9
2022-10-02T13:03:06.252Z,11.9
2022-10-02T13:04:11.913Z,11.9
2022-10-02T13:05:14.595Z,12
2022-10-02T13:06:16.172Z,12.2
2022-10-02T13:07:18.151Z,12.2
2022-10-02T13:08:20.635Z,12.3
2022-10-02T13:09:29.781Z,12.4
2022-10-02T13:10:29.118Z,12.5
2022-10-02T13:11:31.114Z,12.5
2022-10-02T13:12:33.168Z,12.5
2022-10-02T13:13:35.501Z,12.6
2022-10-02T13:14:39.176Z,12.7
2022-10-02T13:15:41.332Z,12.8
2022-10-02T13:16:43.249Z,12.8
2022-10-02T13:17:46.148Z,12.8
2022-10-02T13:18:48.086Z,12.9
2022-10-02T13:19:50.063Z,12.9
2022-10-02T13:20:52.394Z,12.9
2022-10-02T13:21:54.204Z,13
2022-10-02T13:22:56.381Z,13
2022-10-02T13:24:00.205Z,13
2022-10-02T13:25:04.537Z,13
2022-10-02T13:26:06.048Z,13
2022-10-02T13:27:08.153Z,13
2022-10-02T13:28:10.424Z,13
2022-10-02T13:29:15.161Z,13
2022-10-02T13:30:17.251Z,13.1
2022-10-02T13:31:19.150Z,13.2
2022-10-02T13:32:21.477Z,13.3
2022-10-02T13:33:24.192Z,13.4
2022-10-02T13:34:26.311Z,13.5
2022-10-02T13:35:28.490Z,13.5
2022-10-02T13:36:33.572Z,13.5
2022-10-02T13:37:37.053Z,13.6
2022-10-02T13:38:39.354Z,13.6
2022-10-02T13:39:43.192Z,13.6
2022-10-02T13:40:45.192Z,13.7
2022-10-02T13:41:47.252Z,13.7
2022-10-02T13:42:49.389Z,13.8
2022-10-02T13:43:55.281Z,13.7
2022-10-02T13:44:54.231Z,13.7
2022-10-02T13:45:56.166Z,13.8
2022-10-02T13:46:58.232Z,13.9
2022-10-02T13:48:00.233Z,14.2
2022-10-02T13:49:02.271Z,14.4
2022-10-02T13:50:04.419Z,14.7
2022-10-02T13:51:07.552Z,14.9
2022-10-02T13:52:11.117Z,15.1
2022-10-02T13:53:13.092Z,15.1
2022-10-02T13:54:15.251Z,15
2022-10-02T13:55:18.081Z,14.9
2022-10-02T13:56:19.065Z,14.8
2022-10-02T13:57:20.958Z,14.6
2022-10-02T13:58:22.052Z,14.7
2022-10-02T13:59:23.052Z,14.5
2022-10-02T14:00:25.474Z,14.5
2022-10-02T14:01:27.102Z,14.4
2022-10-02T14:02:29.051Z,14.5
2022-10-02T14:03:31.013Z,14.3
2022-10-02T14:04:33.074Z,14.3